Time;durP1;ratioP1;P1;durP2;ratioP2;P2;SDS_P1;SDS_P2;PMS_P1;PMS_P2;Temp;Humidity;BMP_temperature;BMP_pressure;BME280_temperature;BME280_humidity;BME280_pressure;Samples;Min_cycle;Max_cycle;Signal;HPM_P1;HPM_P2
2022/05/30 00:01:12;;;;;;;3.38;2.88;;;;;;;;;;5072063;28;20045;-66
2022/05/30 00:03:39;;;;;;;4.10;2.97;;;;;;;;;;5072198;28;20114;-66
2022/05/30 00:06:12;;;;;;;2.90;2.70;;;;;;;;;;5071999;28;20086;-67
2022/05/30 00:08:39;;;;;;;6.57;3.15;;;;;;;;;;5072204;28;20048;-67
2022/05/30 00:11:08;;;;;;;4.80;3.15;;;;;;;;;;5054053;28;20052;-67
2022/05/30 00:13:35;;;;;;;3.05;2.70;;;;;;;;;;5071766;28;20476;-67
2022/05/30 00:16:06;;;;;;;6.13;2.97;;;;;;;;;;5071707;28;20098;-67
2022/05/30 00:18:33;;;;;;;3.80;2.90;;;;;;;;;;5071955;28;20103;-67
2022/05/30 00:21:00;;;;;;;7.03;3.03;;;;;;;;;;5071712;28;20113;-67
2022/05/30 00:23:27;;;;;;;3.42;2.67;;;;;;;;;;5071882;28;20079;-67
2022/05/30 00:25:53;;;;;;;4.78;2.90;;;;;;;;;;5071761;28;20056;-67
2022/05/30 00:28:20;;;;;;;5.43;2.75;;;;;;;;;;5071744;28;20488;-67
2022/05/30 00:30:48;;;;;;;5.85;2.83;;;;;;;;;;5071513;28;20075;-66
2022/05/30 00:33:15;;;;;;;3.40;3.10;;;;;;;;;;5071865;28;20049;-66
2022/05/30 00:35:42;;;;;;;5.30;3.05;;;;;;;;;;5070521;28;20101;-67
2022/05/30 00:38:09;;;;;;;4.78;3.05;;;;;;;;;;5071841;28;20048;-67
2022/05/30 00:40:36;;;;;;;4.18;3.33;;;;;;;;;;5071659;28;20560;-67
2022/05/30 00:43:22;;;;;;;4.88;3.60;;;;;;;;;;5071604;28;20495;-66
2022/05/30 00:45:49;;;;;;;6.78;3.55;;;;;;;;;;5071905;28;20040;-66
2022/05/30 00:48:16;;;;;;;4.50;3.25;;;;;;;;;;5071838;28;20094;-67
2022/05/30 00:50:43;;;;;;;3.60;3.30;;;;;;;;;;5070169;28;20056;-66
2022/05/30 00:53:09;;;;;;;3.60;3.13;;;;;;;;;;5075812;28;20457;-67
2022/05/30 00:55:36;;;;;;;4.47;3.05;;;;;;;;;;5074149;28;20059;-67
2022/05/30 00:58:02;;;;;;;6.10;3.47;;;;;;;;;;5075604;28;20110;-66
2022/05/30 01:00:29;;;;;;;6.15;3.60;;;;;;;;;;5074387;28;20045;-67
2022/05/30 01:08:28;;;;;;;4.50;3.53;;;;;;;;;;5060598;28;20049;-66
2022/05/30 01:10:55;;;;;;;3.47;3.20;;;;;;;;;;5057710;28;20098;-66
2022/05/30 01:13:23;;;;;;;4.38;3.28;;;;;;;;;;5075071;28;20052;-66
2022/05/30 01:15:50;;;;;;;6.20;3.50;;;;;;;;;;5075269;28;20044;-67
2022/05/30 01:18:39;;;;;;;6.53;3.22;;;;;;;;;;5074038;28;20079;-68
2022/05/30 01:21:31;;;;;;;4.32;3.92;;;;;;;;;;5057727;28;20131;-68
2022/05/30 01:24:24;;;;;;;4.20;3.75;;;;;;;;;;5073883;28;20101;-68
2022/05/30 01:26:58;;;;;;;4.93;4.15;;;;;;;;;;5073730;28;20049;-68
2022/05/30 01:29:45;;;;;;;5.38;3.50;;;;;;;;;;5073670;28;20052;-68
2022/05/30 01:32:20;;;;;;;6.65;4.03;;;;;;;;;;5073524;28;20052;-68
2022/05/30 01:34:47;;;;;;;5.07;3.00;;;;;;;;;;5074673;28;20041;-68
2022/05/30 01:37:14;;;;;;;9.02;3.60;;;;;;;;;;5074824;28;20052;-67
2022/05/30 01:39:40;;;;;;;4.70;2.97;;;;;;;;;;5073706;28;20468;-68
2022/05/30 01:42:07;;;;;;;4.10;3.53;;;;;;;;;;5074855;28;20053;-68
2022/05/30 01:44:34;;;;;;;4.85;3.40;;;;;;;;;;5074522;28;20094;-67
2022/05/30 01:47:00;;;;;;;7.05;3.47;;;;;;;;;;5074539;28;20495;-66
2022/05/30 01:49:27;;;;;;;4.20;3.17;;;;;;;;;;5074704;28;20049;-66
2022/05/30 01:51:54;;;;;;;5.40;4.05;;;;;;;;;;5074347;28;20094;-66
2022/05/30 01:54:21;;;;;;;4.82;3.47;;;;;;;;;;5074530;28;20536;-65
2022/05/30 01:56:48;;;;;;;3.95;2.90;;;;;;;;;;5074427;28;20059;-66
2022/05/30 01:59:15;;;;;;;3.92;3.17;;;;;;;;;;5074408;28;20052;-66
2022/05/30 02:01:45;;;;;;;4.38;3.20;;;;;;;;;;5074160;28;20458;-66
2022/05/30 02:04:13;;;;;;;5.60;3.00;;;;;;;;;;5073360;28;20056;-67
2022/05/30 02:06:39;;;;;;;3.25;2.95;;;;;;;;;;5097170;22;20049;-69
2022/05/30 02:09:06;;;;;;;5.55;3.05;;;;;;;;;;5074288;28;20050;-69
2022/05/30 02:11:33;;;;;;;4.10;3.10;;;;;;;;;;5074303;28;20109;-69
2022/05/30 02:14:00;;;;;;;4.10;2.60;;;;;;;;;;5074569;28;20395;-69
2022/05/30 02:19:12;;;;;;;3.80;3.30;;;;;;;;;;5074369;28;20052;-70
2022/05/30 02:21:38;;;;;;;3.70;3.33;;;;;;;;;;5074294;28;20056;-70
2022/05/30 02:24:06;;;;;;;5.03;3.00;;;;;;;;;;5074194;28;20052;-69
2022/05/30 02:26:34;;;;;;;3.53;3.20;;;;;;;;;;5073905;28;20048;-69
2022/05/30 02:29:01;;;;;;;4.60;3.33;;;;;;;;;;5073887;28;20106;-69
2022/05/30 02:31:28;;;;;;;4.25;3.03;;;;;;;;;;5073679;28;20052;-70
2022/05/30 02:36:41;;;;;;;3.88;2.60;;;;;;;;;;5072671;28;20098;-70
2022/05/30 02:39:09;;;;;;;3.30;3.00;;;;;;;;;;5073865;28;20059;-70
2022/05/30 02:41:36;;;;;;;3.30;2.92;;;;;;;;;;5073556;28;20044;-70
2022/05/30 02:44:03;;;;;;;5.50;3.80;;;;;;;;;;5073547;28;20048;-70
2022/05/30 02:46:30;;;;;;;4.03;2.90;;;;;;;;;;5072414;28;20056;-70
2022/05/30 02:48:57;;;;;;;3.75;3.17;;;;;;;;;;5073657;28;20299;-70
2022/05/30 02:51:24;;;;;;;4.20;3.10;;;;;;;;;;5073463;28;20044;-71
2022/05/30 02:53:50;;;;;;;8.50;3.33;;;;;;;;;;5073367;28;20056;-70
2022/05/30 02:56:17;;;;;;;4.35;3.13;;;;;;;;;;5073234;28;20121;-70
2022/05/30 02:58:44;;;;;;;3.60;3.30;;;;;;;;;;5073224;28;20572;-69
2022/05/30 03:01:12;;;;;;;3.40;3.03;;;;;;;;;;5073316;28;20052;-70
2022/05/30 03:03:39;;;;;;;4.15;3.13;;;;;;;;;;5073312;28;20055;-69
2022/05/30 03:06:05;;;;;;;4.07;3.67;;;;;;;;;;5073154;28;20056;-70
2022/05/30 03:08:32;;;;;;;4.80;3.60;;;;;;;;;;5073168;28;20227;-70
2022/05/30 03:10:59;;;;;;;4.03;3.63;;;;;;;;;;5072867;28;20423;-70
2022/05/30 03:13:26;;;;;;;4.45;3.88;;;;;;;;;;5073028;28;20495;-70
2022/05/30 03:15:52;;;;;;;7.93;3.78;;;;;;;;;;5073083;28;20053;-70
2022/05/30 03:18:19;;;;;;;5.13;3.67;;;;;;;;;;5072999;28;20052;-71
2022/05/30 03:20:46;;;;;;;5.30;3.90;;;;;;;;;;5072685;28;20097;-70
2022/05/30 03:23:12;;;;;;;3.90;3.60;;;;;;;;;;5072807;28;20059;-71
2022/05/30 03:25:39;;;;;;;4.57;4.00;;;;;;;;;;5072815;28;20518;-71
2022/05/30 03:28:06;;;;;;;4.43;3.70;;;;;;;;;;5073146;28;20054;-71
2022/05/30 03:30:36;;;;;;;3.50;3.20;;;;;;;;;;5075645;28;20086;-70
2022/05/30 03:33:08;;;;;;;3.60;3.30;;;;;;;;;;5076447;28;20083;-70
2022/05/30 03:35:35;;;;;;;3.80;3.50;;;;;;;;;;5072737;28;20161;-70
2022/05/30 03:38:02;;;;;;;3.42;3.13;;;;;;;;;;5072751;28;20050;-69
2022/05/30 03:40:29;;;;;;;3.38;3.03;;;;;;;;;;5072414;28;20561;-69
2022/05/30 03:42:55;;;;;;;3.85;3.30;;;;;;;;;;5072419;28;20525;-70
2022/05/30 03:45:22;;;;;;;3.42;3.10;;;;;;;;;;5072752;28;20050;-70
2022/05/30 03:47:49;;;;;;;4.30;3.22;;;;;;;;;;5072416;28;20044;-70
2022/05/30 03:50:19;;;;;;;3.40;3.10;;;;;;;;;;5072345;28;20052;-70
2022/05/30 03:52:46;;;;;;;4.38;3.67;;;;;;;;;;5071958;28;20055;-70
2022/05/30 03:55:15;;;;;;;5.43;3.78;;;;;;;;;;5072325;28;20044;-69
2022/05/30 03:57:42;;;;;;;5.30;4.15;;;;;;;;;;5072380;28;20464;-69
2022/05/30 04:00:11;;;;;;;4.93;4.43;;;;;;;;;;5072149;28;20052;-69
2022/05/30 04:02:38;;;;;;;4.88;4.40;;;;;;;;;;5071988;28;20052;-70
2022/05/30 04:05:05;;;;;;;5.45;4.55;;;;;;;;;;5072053;28;20052;-69
2022/05/30 04:07:32;;;;;;;6.30;4.57;;;;;;;;;;5071860;28;20457;-69
2022/05/30 04:09:58;;;;;;;5.85;4.28;;;;;;;;;;5072270;28;20066;-69
2022/05/30 04:12:25;;;;;;;5.25;4.57;;;;;;;;;;5071787;28;20048;-68
2022/05/30 04:14:53;;;;;;;4.60;4.10;;;;;;;;;;5071923;28;20481;-70
2022/05/30 04:17:20;;;;;;;5.03;4.50;;;;;;;;;;5071997;28;20044;-70
2022/05/30 04:19:46;;;;;;;4.85;4.35;;;;;;;;;;5071741;28;20055;-70
2022/05/30 04:22:13;;;;;;;5.93;5.25;;;;;;;;;;5071982;28;20119;-69
2022/05/30 04:24:40;;;;;;;5.95;4.57;;;;;;;;;;5072044;28;20049;-70
2022/05/30 04:27:07;;;;;;;5.13;4.63;;;;;;;;;;5071612;28;20053;-70
2022/05/30 04:29:33;;;;;;;4.90;4.30;;;;;;;;;;5071854;28;20522;-70
2022/05/30 04:32:00;;;;;;;6.35;5.57;;;;;;;;;;5071623;28;20044;-69
2022/05/30 04:34:27;;;;;;;5.43;4.93;;;;;;;;;;5071584;28;20051;-69
2022/05/30 04:36:54;;;;;;;5.15;4.75;;;;;;;;;;5071652;28;20086;-69
2022/05/30 04:39:20;;;;;;;5.90;5.10;;;;;;;;;;5071780;28;20052;-70
2022/05/30 04:41:47;;;;;;;5.68;5.15;;;;;;;;;;5071425;28;20049;-70
2022/05/30 04:44:14;;;;;;;7.32;5.38;;;;;;;;;;5071578;28;20053;-69
2022/05/30 04:46:40;;;;;;;6.78;5.28;;;;;;;;;;5071490;28;20049;-70
2022/05/30 04:49:07;;;;;;;8.23;6.18;;;;;;;;;;5071645;28;20052;-69
2022/05/30 04:51:34;;;;;;;6.05;5.32;;;;;;;;;;5071362;28;20505;-69
2022/05/30 04:54:00;;;;;;;7.95;5.57;;;;;;;;;;5071654;28;20052;-70
2022/05/30 04:56:27;;;;;;;5.22;4.72;;;;;;;;;;5071433;28;20091;-70
2022/05/30 04:58:53;;;;;;;7.22;5.20;;;;;;;;;;5071577;28;20052;-70
2022/05/30 05:01:20;;;;;;;6.53;5.78;;;;;;;;;;5071281;28;20049;-69
2022/05/30 05:03:47;;;;;;;6.60;6.00;;;;;;;;;;5071372;28;20076;-70
2022/05/30 05:06:18;;;;;;;7.07;6.28;;;;;;;;;;5071305;28;20048;-70
2022/05/30 05:09:18;;;;;;;8.07;5.88;;;;;;;;;;5071884;28;20475;-70
2022/05/30 05:11:46;;;;;;;8.05;6.18;;;;;;;;;;5040214;28;20495;-70
2022/05/30 05:14:13;;;;;;;6.10;5.50;;;;;;;;;;5071589;28;20121;-69
2022/05/30 05:16:40;;;;;;;8.77;5.97;;;;;;;;;;5071310;28;20071;-70
2022/05/30 05:19:07;;;;;;;9.68;6.57;;;;;;;;;;5070360;28;20048;-70
2022/05/30 05:21:36;;;;;;;6.85;6.25;;;;;;;;;;5071393;28;20052;-70
2022/05/30 05:24:05;;;;;;;6.57;5.80;;;;;;;;;;5071359;28;20485;-70
2022/05/30 05:26:31;;;;;;;5.88;5.28;;;;;;;;;;5071233;28;20045;-70
2022/05/30 05:28:58;;;;;;;5.28;4.78;;;;;;;;;;5071129;28;20048;-70
2022/05/30 05:31:31;;;;;;;5.60;5.10;;;;;;;;;;5069639;28;20055;-70
2022/05/30 05:33:58;;;;;;;7.28;5.47;;;;;;;;;;5071258;28;20052;-70
2022/05/30 05:36:28;;;;;;;5.20;4.80;;;;;;;;;;5071174;28;20040;-70
2022/05/30 05:38:54;;;;;;;5.32;4.82;;;;;;;;;;5072819;28;20419;-70
2022/05/30 05:41:21;;;;;;;6.00;5.18;;;;;;;;;;5074870;28;20106;-70
2022/05/30 05:43:49;;;;;;;6.43;5.30;;;;;;;;;;5074961;28;20090;-70
2022/05/30 05:46:17;;;;;;;4.65;3.97;;;;;;;;;;5074731;28;20049;-70
2022/05/30 05:48:44;;;;;;;4.82;3.88;;;;;;;;;;5074863;28;20052;-70
2022/05/30 05:51:13;;;;;;;5.10;4.60;;;;;;;;;;5074827;28;20044;-69
2022/05/30 05:53:41;;;;;;;9.23;4.80;;;;;;;;;;5074552;28;20518;-70
2022/05/30 05:56:11;;;;;;;4.85;4.30;;;;;;;;;;5076787;28;20068;-69
2022/05/30 05:58:37;;;;;;;4.32;3.83;;;;;;;;;;5081588;28;20048;-69
2022/05/30 06:01:11;;;;;;;5.35;3.90;;;;;;;;;;5080626;28;20049;-69
2022/05/30 06:03:38;;;;;;;4.30;3.78;;;;;;;;;;5081092;28;20052;-69
2022/05/30 06:06:05;;;;;;;4.22;3.67;;;;;;;;;;5076032;28;20051;-70
2022/05/30 06:08:33;;;;;;;4.32;3.90;;;;;;;;;;5074809;28;20086;-70
2022/05/30 06:11:05;;;;;;;4.10;3.45;;;;;;;;;;5074731;28;20125;-70
2022/05/30 06:13:32;;;;;;;6.75;3.78;;;;;;;;;;5074603;28;20054;-70
2022/05/30 06:15:59;;;;;;;4.00;3.60;;;;;;;;;;5074407;28;20113;-70
2022/05/30 06:18:25;;;;;;;3.50;3.20;;;;;;;;;;5074268;28;20106;-70
2022/05/30 06:20:58;;;;;;;4.07;3.33;;;;;;;;;;5074103;28;20056;-70
2022/05/30 06:23:25;;;;;;;3.88;3.20;;;;;;;;;;5074175;28;20552;-69
2022/05/30 06:25:52;;;;;;;5.10;3.55;;;;;;;;;;5074225;28;20090;-69
2022/05/30 06:28:18;;;;;;;3.75;2.90;;;;;;;;;;5074112;28;20052;-70
2022/05/30 06:30:45;;;;;;;3.58;3.17;;;;;;;;;;5073847;28;20052;-70
2022/05/30 06:33:12;;;;;;;8.38;3.13;;;;;;;;;;5073248;28;20055;-70
2022/05/30 06:35:40;;;;;;;4.82;3.20;;;;;;;;;;5073973;28;20102;-69
2022/05/30 06:38:09;;;;;;;4.20;2.60;;;;;;;;;;5072678;28;20049;-70
2022/05/30 06:40:35;;;;;;;3.78;2.40;;;;;;;;;;5073703;28;20502;-70
2022/05/30 06:43:03;;;;;;;2.60;2.15;;;;;;;;;;5073497;28;20048;-70
2022/05/30 06:45:31;;;;;;;2.92;2.72;;;;;;;;;;5073373;28;20055;-70
2022/05/30 06:47:59;;;;;;;8.23;3.17;;;;;;;;;;5073484;28;20102;-70
2022/05/30 06:50:26;;;;;;;3.28;2.97;;;;;;;;;;5073046;28;20103;-69
2022/05/30 06:52:53;;;;;;;5.55;3.40;;;;;;;;;;5073159;28;20045;-69
2022/05/30 06:55:20;;;;;;;6.22;3.22;;;;;;;;;;5073371;28;20044;-70
2022/05/30 07:00:31;;;;;;;7.30;3.17;;;;;;;;;;5073459;28;20056;-70
2022/05/30 07:02:59;;;;;;;3.95;3.15;;;;;;;;;;5073256;28;20063;-70
2022/05/30 07:05:25;;;;;;;5.28;3.15;;;;;;;;;;5073137;28;20068;-70
2022/05/30 07:07:56;;;;;;;3.80;2.60;;;;;;;;;;5072129;28;20044;-70
2022/05/30 07:10:27;;;;;;;8.38;2.88;;;;;;;;;;5073056;28;20503;-70
2022/05/30 07:12:53;;;;;;;3.88;2.78;;;;;;;;;;5072770;28;20045;-70
2022/05/30 07:15:20;;;;;;;3.38;3.08;;;;;;;;;;5073092;28;20048;-70
2022/05/30 07:17:51;;;;;;;6.32;2.80;;;;;;;;;;5072969;28;20645;-70
2022/05/30 07:20:18;;;;;;;4.43;3.10;;;;;;;;;;5071745;28;20055;-70
2022/05/30 07:22:45;;;;;;;6.18;2.75;;;;;;;;;;5072576;28;20048;-70
2022/05/30 07:25:12;;;;;;;4.13;2.60;;;;;;;;;;5071395;28;20052;-70
2022/05/30 07:27:38;;;;;;;4.93;2.50;;;;;;;;;;5072958;28;20055;-69
2022/05/30 07:30:06;;;;;;;3.83;2.63;;;;;;;;;;5072820;28;20082;-70
2022/05/30 07:32:33;;;;;;;2.55;2.33;;;;;;;;;;5072132;28;20049;-70
2022/05/30 07:35:00;;;;;;;3.25;2.92;;;;;;;;;;5072767;28;20135;-69
2022/05/30 07:37:27;;;;;;;3.55;2.20;;;;;;;;;;5072361;28;20556;-70
2022/05/30 07:39:54;;;;;;;4.35;2.75;;;;;;;;;;5072866;28;20378;-69
2022/05/30 07:42:20;;;;;;;3.45;2.00;;;;;;;;;;5072622;28;20049;-69
2022/05/30 07:44:47;;;;;;;3.33;2.63;;;;;;;;;;5072535;28;20052;-70
2022/05/30 07:47:16;;;;;;;3.90;1.77;;;;;;;;;;5072457;28;20053;-69
2022/05/30 07:49:44;;;;;;;4.80;2.65;;;;;;;;;;5072399;28;20418;-70
2022/05/30 07:52:11;;;;;;;3.22;1.90;;;;;;;;;;5072006;28;20052;-70
2022/05/30 07:54:38;;;;;;;3.63;1.98;;;;;;;;;;5072386;28;20048;-70
2022/05/30 07:57:06;;;;;;;3.65;2.20;;;;;;;;;;5072153;28;20094;-69
2022/05/30 07:59:35;;;;;;;3.03;2.28;;;;;;;;;;5072657;28;20052;-69
2022/05/30 08:02:03;;;;;;;3.22;1.70;;;;;;;;;;5071525;28;20491;-70
2022/05/30 08:04:30;;;;;;;5.75;1.90;;;;;;;;;;5072054;28;20048;-70
2022/05/30 08:06:56;;;;;;;2.47;1.77;;;;;;;;;;5094676;22;20040;-67
2022/05/30 08:09:23;;;;;;;2.55;1.88;;;;;;;;;;5070961;28;20049;-66
2022/05/30 08:11:50;;;;;;;3.05;1.67;;;;;;;;;;5072021;28;20044;-65
2022/05/30 08:14:16;;;;;;;3.13;1.63;;;;;;;;;;5072058;28;20522;-65
2022/05/30 08:16:43;;;;;;;1.90;1.60;;;;;;;;;;5071814;28;20052;-66
2022/05/30 08:19:18;;;;;;;2.55;1.58;;;;;;;;;;5071887;28;20052;-66
2022/05/30 08:22:07;;;;;;;14.05;2.47;;;;;;;;;;5071640;28;20098;-66
2022/05/30 08:24:38;;;;;;;4.13;2.78;;;;;;;;;;5054169;28;20064;-65
2022/05/30 08:27:05;;;;;;;2.53;1.65;;;;;;;;;;5070584;28;20045;-67
2022/05/30 08:29:32;;;;;;;3.85;2.15;;;;;;;;;;5054063;28;20052;-66
2022/05/30 08:31:58;;;;;;;5.60;2.63;;;;;;;;;;5053962;28;20048;-66
2022/05/30 08:34:25;;;;;;;4.30;1.80;;;;;;;;;;5070660;28;20049;-66
2022/05/30 08:36:52;;;;;;;2.30;1.95;;;;;;;;;;5070405;28;20044;-66
2022/05/30 08:42:04;;;;;;;4.25;1.80;;;;;;;;;;5056472;28;20048;-66
2022/05/30 08:44:31;;;;;;;3.03;1.40;;;;;;;;;;5071477;28;20053;-66
2022/05/30 08:47:23;;;;;;;2.08;1.80;;;;;;;;;;5071508;28;20056;-66
2022/05/30 08:49:52;;;;;;;3.08;1.50;;;;;;;;;;5071509;28;20071;-67
2022/05/30 08:52:34;;;;;;;3.17;1.70;;;;;;;;;;5071507;28;20106;-66
2022/05/30 08:55:10;;;;;;;3.22;1.63;;;;;;;;;;5070281;28;20499;-66
2022/05/30 08:57:42;;;;;;;2.70;1.60;;;;;;;;;;5054776;28;20048;-66
2022/05/30 09:00:09;;;;;;;3.10;1.77;;;;;;;;;;5070796;28;20098;-66
2022/05/30 09:02:51;;;;;;;2.83;1.27;;;;;;;;;;5071751;28;20425;-68
2022/05/30 09:05:28;;;;;;;3.05;1.52;;;;;;;;;;5054467;28;20052;-68
2022/05/30 09:08:25;;;;;;;2.85;1.60;;;;;;;;;;5056583;28;20045;-66
2022/05/30 09:11:18;;;;;;;4.15;1.38;;;;;;;;;;5053738;28;20105;-68
2022/05/30 09:13:46;;;;;;;2.63;1.50;;;;;;;;;;5046663;28;20491;-67
2022/05/30 09:16:22;;;;;;;5.85;1.70;;;;;;;;;;5074197;28;20279;-66
2022/05/30 09:18:52;;;;;;;2.88;1.50;;;;;;;;;;5075375;28;20099;-66
2022/05/30 09:21:27;;;;;;;2.42;2.00;;;;;;;;;;5075079;28;20060;-66
2022/05/30 09:23:54;;;;;;;4.82;1.10;;;;;;;;;;5074942;28;20071;-68
2022/05/30 09:26:25;;;;;;;3.35;1.35;;;;;;;;;;5074936;28;20048;-66
2022/05/30 09:28:54;;;;;;;4.00;1.30;;;;;;;;;;5073942;28;20044;-66
2022/05/30 09:31:26;;;;;;;2.45;1.10;;;;;;;;;;5057197;28;20049;-67
2022/05/30 09:33:55;;;;;;;2.08;1.20;;;;;;;;;;5057786;28;20048;-67
2022/05/30 09:36:22;;;;;;;2.85;1.33;;;;;;;;;;5074603;28;20457;-67
2022/05/30 09:39:04;;;;;;;3.45;1.60;;;;;;;;;;5073934;28;20418;-67
2022/05/30 09:41:40;;;;;;;2.60;1.08;;;;;;;;;;5057996;28;20055;-66
2022/05/30 09:44:14;;;;;;;2.50;1.38;;;;;;;;;;5072945;28;20052;-68
2022/05/30 09:46:43;;;;;;;2.60;1.20;;;;;;;;;;5057268;28;20123;-66
2022/05/30 09:49:18;;;;;;;1.80;1.00;;;;;;;;;;5072570;28;20052;-66
2022/05/30 09:51:49;;;;;;;2.10;1.20;;;;;;;;;;5056928;28;20110;-68
2022/05/30 09:54:28;;;;;;;3.20;1.00;;;;;;;;;;5057102;28;20051;-66
2022/05/30 09:56:58;;;;;;;2.30;0.82;;;;;;;;;;5074368;28;20049;-67
2022/05/30 09:59:32;;;;;;;2.28;1.17;;;;;;;;;;5074439;28;20044;-68
2022/05/30 10:02:00;;;;;;;3.17;0.88;;;;;;;;;;5073228;28;20105;-68
2022/05/30 10:04:33;;;;;;;2.88;0.90;;;;;;;;;;5056907;28;20055;-68
2022/05/30 10:07:17;;;;;;;2.60;0.80;;;;;;;;;;5074897;28;20090;-67
2022/05/30 10:09:54;;;;;;;1.88;1.00;;;;;;;;;;5071948;28;20056;-67
2022/05/30 10:12:29;;;;;;;2.33;1.30;;;;;;;;;;5072682;28;20082;-67
2022/05/30 10:14:56;;;;;;;2.78;1.00;;;;;;;;;;5054867;28;20106;-66
2022/05/30 10:17:35;;;;;;;2.92;1.10;;;;;;;;;;5054599;28;20457;-67
2022/05/30 10:20:07;;;;;;;2.80;1.00;;;;;;;;;;5054657;28;20582;-67
2022/05/30 10:28:49;;;;;;;4.18;1.00;;;;;;;;;;5071994;28;20048;-67
2022/05/30 10:31:36;;;;;;;2.60;0.80;;;;;;;;;;5070828;28;20195;-66
2022/05/30 10:34:15;;;;;;;2.83;1.13;;;;;;;;;;5070882;28;20049;-66
2022/05/30 10:37:08;;;;;;;2.42;0.98;;;;;;;;;;5071276;28;20552;-66
2022/05/30 10:39:35;;;;;;;2.80;0.60;;;;;;;;;;5057358;28;20056;-67
2022/05/30 10:42:08;;;;;;;2.00;0.90;;;;;;;;;;5071896;28;20056;-67
2022/05/30 10:44:42;;;;;;;1.33;0.93;;;;;;;;;;5054536;28;20055;-66
2022/05/30 10:47:16;;;;;;;4.28;0.88;;;;;;;;;;5054499;28;20052;-66
2022/05/30 10:49:49;;;;;;;2.17;0.90;;;;;;;;;;5054552;28;20072;-70
2022/05/30 10:52:29;;;;;;;2.72;1.05;;;;;;;;;;5040608;28;20503;-67
2022/05/30 10:54:58;;;;;;;4.47;1.30;;;;;;;;;;5058763;28;20048;-67
2022/05/30 10:57:49;;;;;;;2.95;0.80;;;;;;;;;;5042479;28;20458;-66
2022/05/30 11:00:21;;;;;;;2.05;1.27;;;;;;;;;;5058856;28;20056;-68
2022/05/30 11:03:25;;;;;;;1.70;0.88;;;;;;;;;;5043020;28;20063;-68
2022/05/30 11:05:55;;;;;;;1.65;0.80;;;;;;;;;;5062552;28;20470;-71
2022/05/30 11:08:33;;;;;;;2.80;1.08;;;;;;;;;;5066096;28;20063;-72
2022/05/30 11:11:29;;;;;;;2.58;1.05;;;;;;;;;;5058771;28;20051;-68
2022/05/30 11:14:00;;;;;;;3.85;1.00;;;;;;;;;;5048621;28;20048;-68
2022/05/30 11:16:36;;;;;;;2.25;0.82;;;;;;;;;;5042642;28;20049;-69
2022/05/30 11:19:18;;;;;;;3.25;1.00;;;;;;;;;;5057294;28;20424;-68
2022/05/30 11:22:03;;;;;;;2.13;0.73;;;;;;;;;;5060023;28;20056;-69
2022/05/30 11:24:30;;;;;;;3.92;1.08;;;;;;;;;;5044213;28;20048;-68
2022/05/30 11:27:09;;;;;;;2.00;0.90;;;;;;;;;;5043534;28;21060;-73
2022/05/30 11:30:16;;;;;;;2.28;0.90;;;;;;;;;;5058580;28;20440;-68
2022/05/30 11:32:46;;;;;;;1.73;0.90;;;;;;;;;;5058140;28;20134;-72
2022/05/30 11:35:43;;;;;;;1.30;0.90;;;;;;;;;;5064675;28;20048;-69
2022/05/30 11:38:31;;;;;;;2.53;1.08;;;;;;;;;;5049394;28;20065;-69
2022/05/30 11:41:23;;;;;;;1.27;0.70;;;;;;;;;;5049274;28;20040;-69
2022/05/30 11:44:13;;;;;;;2.25;1.00;;;;;;;;;;5064995;28;20411;-71
2022/05/30 11:46:54;;;;;;;1.80;1.00;;;;;;;;;;5071191;28;20048;-69
2022/05/30 11:49:42;;;;;;;1.92;0.70;;;;;;;;;;5065949;28;20482;-69
2022/05/30 11:52:18;;;;;;;2.33;1.00;;;;;;;;;;5061653;28;20052;-69
2022/05/30 11:55:11;;;;;;;2.00;0.80;;;;;;;;;;5058454;28;20048;-69
2022/05/30 11:57:44;;;;;;;2.72;0.90;;;;;;;;;;5061055;28;20407;-70
2022/05/30 12:00:37;;;;;;;2.25;1.05;;;;;;;;;;5061562;28;20056;-71
2022/05/30 12:03:13;;;;;;;1.38;0.98;;;;;;;;;;5059762;28;20041;-69
2022/05/30 12:06:19;;;;;;;0.98;0.82;;;;;;;;;;5063087;28;20052;-69
2022/05/30 12:09:07;;;;;;;2.55;0.70;;;;;;;;;;5059987;28;20052;-69
2022/05/30 12:11:53;;;;;;;2.75;0.70;;;;;;;;;;5059078;28;20045;-68
2022/05/30 12:14:28;;;;;;;2.20;0.93;;;;;;;;;;5057547;28;20869;-69
2022/05/30 12:17:12;;;;;;;2.55;0.80;;;;;;;;;;5069554;28;20418;-69
2022/05/30 12:25:38;;;;;;;2.03;0.75;;;;;;;;;;5064620;28;20106;-68
2022/05/30 12:28:06;;;;;;;2.67;0.95;;;;;;;;;;5061712;28;20045;-68
2022/05/30 12:30:42;;;;;;;1.90;0.70;;;;;;;;;;5057029;28;20499;-68
2022/05/30 12:33:27;;;;;;;2.22;0.57;;;;;;;;;;5061188;28;20048;-68
2022/05/30 12:36:06;;;;;;;3.67;0.95;;;;;;;;;;5062095;28;20044;-68
2022/05/30 12:38:51;;;;;;;1.23;0.82;;;;;;;;;;5057832;28;20049;-68
2022/05/30 12:41:19;;;;;;;1.70;0.80;;;;;;;;;;5058793;28;20091;-68
2022/05/30 12:43:46;;;;;;;1.73;0.80;;;;;;;;;;5060025;28;20052;-68
2022/05/30 12:46:16;;;;;;;1.80;0.63;;;;;;;;;;5040918;28;20451;-68
2022/05/30 12:48:50;;;;;;;1.73;0.70;;;;;;;;;;5047770;28;20047;-69
2022/05/30 12:51:29;;;;;;;3.25;0.80;;;;;;;;;;5062413;28;20060;-68
2022/05/30 12:53:58;;;;;;;1.35;0.70;;;;;;;;;;5063188;28;20049;-68
2022/05/30 12:56:37;;;;;;;3.38;0.68;;;;;;;;;;5062941;28;20136;-69
2022/05/30 12:59:04;;;;;;;1.10;0.60;;;;;;;;;;5065599;28;20192;-68
2022/05/30 13:01:44;;;;;;;1.38;0.80;;;;;;;;;;5066778;28;20090;-73
2022/05/30 13:04:27;;;;;;;0.95;0.73;;;;;;;;;;5066560;28;20052;-76
2022/05/30 13:07:01;;;;;;;1.38;0.80;;;;;;;;;;5063370;28;20059;-75
2022/05/30 13:09:40;;;;;;;2.70;0.80;;;;;;;;;;5062052;28;20076;-70
2022/05/30 13:12:15;;;;;;;0.77;0.77;;;;;;;;;;5059400;28;20079;-76
2022/05/30 13:15:00;;;;;;;1.17;0.70;;;;;;;;;;5061320;28;20053;-75
2022/05/30 13:17:48;;;;;;;0.98;0.65;;;;;;;;;;5063917;28;20139;-76
2022/05/30 13:20:18;;;;;;;1.15;0.80;;;;;;;;;;5057731;28;20061;-72
2022/05/30 13:22:56;;;;;;;2.72;0.77;;;;;;;;;;5046590;28;20049;-76
2022/05/30 13:25:33;;;;;;;4.55;1.02;;;;;;;;;;5062065;28;20060;-77
2022/05/30 13:28:14;;;;;;;0.93;0.70;;;;;;;;;;5062801;28;20045;-75
2022/05/30 13:30:41;;;;;;;2.50;0.88;;;;;;;;;;5060778;28;20049;-75
2022/05/30 13:33:23;;;;;;;1.27;0.90;;;;;;;;;;5043707;28;20051;-74
2022/05/30 13:35:51;;;;;;;1.17;0.80;;;;;;;;;;5047927;28;20044;-74
2022/05/30 13:38:17;;;;;;;3.53;1.13;;;;;;;;;;5042335;28;20044;-77
2022/05/30 13:40:45;;;;;;;1.60;1.05;;;;;;;;;;5060748;28;20059;-71
2022/05/30 13:43:18;;;;;;;2.92;0.68;;;;;;;;;;5042777;28;20059;-73
2022/05/30 13:46:05;;;;;;;;;;;;;;;;;;5048256;28;20052;-66
2022/05/30 13:48:33;;;;;;;2.13;0.88;;;;;;;;;;5060027;28;19963;-71
2022/05/30 13:51:01;;;;;;;1.33;0.70;;;;;;;;;;5042824;28;20107;-70
2022/05/30 13:53:42;;;;;;;1.40;0.70;;;;;;;;;;5060123;28;20057;-69
2022/05/30 13:56:17;;;;;;;1.50;1.08;;;;;;;;;;5060361;28;20044;-69
2022/05/30 13:58:47;;;;;;;2.42;0.82;;;;;;;;;;5042094;28;20071;-70
2022/05/30 14:01:16;;;;;;;1.05;0.77;;;;;;;;;;5060063;28;20064;-68
2022/05/30 14:03:49;;;;;;;1.75;0.77;;;;;;;;;;5060493;28;20051;-68
2022/05/30 14:06:34;;;;;;;3.10;1.00;;;;;;;;;;5057849;28;20103;-71
2022/05/30 14:09:03;;;;;;;1.27;0.80;;;;;;;;;;5096211;22;20132;-71
2022/05/30 14:11:41;;;;;;;1.83;0.70;;;;;;;;;;5026718;28;20052;-70
2022/05/30 14:14:09;;;;;;;1.65;0.65;;;;;;;;;;5041388;28;20041;-67
2022/05/30 14:16:57;;;;;;;2.88;0.70;;;;;;;;;;5039805;28;20049;-69
2022/05/30 14:19:29;;;;;;;1.23;0.70;;;;;;;;;;5051932;28;20055;-69
2022/05/30 14:21:58;;;;;;;2.20;0.77;;;;;;;;;;5052381;28;20052;-70
2022/05/30 14:24:35;;;;;;;1.90;0.80;;;;;;;;;;5035538;28;20533;-71
2022/05/30 14:27:04;;;;;;;1.88;0.90;;;;;;;;;;5051311;28;20045;-70
2022/05/30 14:29:36;;;;;;;1.23;0.70;;;;;;;;;;5051425;28;20094;-69
2022/05/30 14:32:24;;;;;;;1.75;1.00;;;;;;;;;;5041821;28;20059;-72
2022/05/30 14:35:13;;;;;;;1.70;1.00;;;;;;;;;;5050837;28;20052;-70
2022/05/30 14:37:42;;;;;;;2.63;0.88;;;;;;;;;;5052791;28;20274;-74
2022/05/30 14:40:37;;;;;;;1.85;1.10;;;;;;;;;;5053027;28;20045;-68
2022/05/30 14:43:29;;;;;;;1.95;1.00;;;;;;;;;;5049359;28;20049;-73
2022/05/30 14:46:11;;;;;;;1.27;1.00;;;;;;;;;;5049278;28;20044;-71
2022/05/30 14:48:44;;;;;;;3.22;1.00;;;;;;;;;;5052060;28;20503;-71
2022/05/30 14:51:29;;;;;;;1.63;0.90;;;;;;;;;;5051309;28;20308;-70
2022/05/30 14:54:13;;;;;;;3.63;0.93;;;;;;;;;;5040915;28;20045;-71
2022/05/30 14:56:42;;;;;;;2.03;0.73;;;;;;;;;;5033691;28;20105;-67
2022/05/30 14:59:09;;;;;;;1.83;0.85;;;;;;;;;;5048658;28;20037;-69
2022/05/30 15:01:40;;;;;;;1.42;0.73;;;;;;;;;;5051576;28;20057;-67
2022/05/30 15:04:12;;;;;;;2.65;0.80;;;;;;;;;;5051918;28;20531;-68
2022/05/30 15:06:54;;;;;;;2.20;1.00;;;;;;;;;;5052917;28;20052;-68
2022/05/30 15:09:23;;;;;;;4.43;1.27;;;;;;;;;;5049307;28;20052;-68
2022/05/30 15:11:50;;;;;;;1.67;0.68;;;;;;;;;;5051023;28;20084;-70
2022/05/30 15:14:19;;;;;;;1.10;0.80;;;;;;;;;;5051895;28;20057;-70
2022/05/30 15:16:47;;;;;;;2.15;1.15;;;;;;;;;;5052018;28;20056;-69
2022/05/30 15:19:13;;;;;;;1.58;1.20;;;;;;;;;;5051338;28;20074;-69
2022/05/30 15:21:44;;;;;;;2.97;1.52;;;;;;;;;;5048188;28;20140;-69
2022/05/30 15:24:21;;;;;;;2.75;1.20;;;;;;;;;;5049694;28;20053;-70
2022/05/30 15:26:48;;;;;;;1.58;1.00;;;;;;;;;;5051145;28;20055;-69
2022/05/30 15:29:15;;;;;;;2.72;0.98;;;;;;;;;;5051811;28;20056;-71
2022/05/30 15:31:43;;;;;;;3.58;1.52;;;;;;;;;;5051054;28;20131;-70
2022/05/30 15:34:11;;;;;;;1.00;0.90;;;;;;;;;;5051425;28;20491;-69
2022/05/30 15:36:37;;;;;;;1.40;0.90;;;;;;;;;;5051408;28;20055;-69
2022/05/30 15:39:13;;;;;;;3.28;1.15;;;;;;;;;;5047765;28;20132;-69